Latest Weather Observations for Albion Park

IDN60801

Issued at 2:02 pm EDT Saturday 10 December 2016 (issued every 30 minutes, with the page automatically refreshed every 10 minutes)

About weather observations | Map of weather stations | Latest weather observations for NSW | Other Formats
Station Details ID: 068241 Name: WOLLONGONG AIRPORT Lat: -34.56 Lon: 150.79 Height: 8.0 m
Data from the previous 72 hours. | See also: Recent months at Albion Park
Date/Time
EDT
Temp
°C
App
Temp
°C
Dew
Point
°C
Rel
Hum
%
Delta-T
°C
Wind Press
QNH
hPa
Press
MSL
hPa
Rain since
9am
mm
Dir  Spd
km/h
Gust
km/h
Spd
kts
Gust
kts
10/02:00pm 23.3 20.7 13.8 55 5.5 ENE 20 28 11 15 1021.3 1021.3 0.0
10/01:30pm 23.0 20.1 12.9 53 5.8 NE 20 28 11 15 1021.6 1021.6 0.0
10/01:00pm 22.3 19.5 13.1 56 5.3 NE 20 30 11 16 1021.8 1021.8 0.0
10/12:30pm 22.0 19.3 12.8 56 5.2 NE 19 26 10 14 1021.8 1021.8 0.0
10/12:00pm 21.3 18.1 11.9 55 5.2 NE 20 28 11 15 1022.1 1022.1 0.0
10/11:30am 22.0 18.9 12.3 54 5.5 NE 20 28 11 15 1022.2 1022.2 0.0
10/11:00am 21.5 18.8 11.8 54 5.4 NE 17 24 9 13 1022.5 1022.5 0.0
10/10:30am 21.8 19.9 12.9 57 5.1 NE 15 19 8 10 1022.4 1022.4 0.0
10/10:00am 20.6 18.3 11.8 57 4.9 NE 15 19 8 10 1022.5 1022.5 0.0
10/09:30am 21.0 19.0 11.6 55 5.2 ENE 13 17 7 9 1022.6 1022.6 0.0
10/09:00am 20.6 19.5 11.8 57 4.9 NE 9 15 5 8 1022.6 1022.6 0.0
10/08:30am 19.1 18.3 10.9 59 4.5 N 6 11 3 6 1022.6 1022.6 0.0
10/08:00am 19.3 19.5 11.8 62 4.1 N 2 7 1 4 1022.5 1022.5 0.0
10/07:30am 17.1 17.0 12.0 72 2.8 NNW 4 7 2 4 1022.3 1022.3 0.0
10/07:00am 14.9 15.1 12.0 83 1.6 NNW 2 7 1 4 1021.9 1021.9 0.0
10/06:30am 13.3 12.7 11.7 90 0.9 NNW 6 7 3 4 1021.5 1021.5 0.0
10/06:00am 12.4 12.3 10.8 90 0.8 W 2 7 1 4 1021.1 1021.1 0.0
10/05:30am 12.3 10.8 10.4 88 1.0 WSW 9 11 5 6 1020.7 1020.7 0.0
10/05:00am 13.8 14.1 11.0 83 1.5 CALM 0 0 0 0 1020.3 1020.3 0.0
10/04:30am 14.5 14.2 11.5 82 1.6 NW 4 7 2 4 1020.1 1020.1 0.0
10/04:00am 14.3 13.1 11.5 83 1.5 WSW 9 11 5 6 1019.9 1019.9 0.0
10/03:30am 14.0 13.3 11.5 85 1.3 SW 6 9 3 5 1019.7 1019.7 0.0
10/03:00am 13.9 13.9 11.2 84 1.4 SW 2 6 1 3 1019.5 1019.5 0.0
10/02:30am 14.1 13.8 11.3 83 1.5 W 4 7 2 4 1019.5 1019.5 0.0
10/02:00am 14.2 13.4 11.0 81 1.7 WSW 6 7 3 4 1019.4 1019.4 0.0
10/01:30am 14.7 13.3 10.9 78 2.0 WNW 9 11 5 6 1019.4 1019.4 0.0
10/01:00am 13.8 12.4 11.0 83 1.5 WSW 9 11 5 6 1019.4 1019.4 0.0
10/12:30am 13.4 11.5 10.4 82 1.6 W 11 11 6 6 1019.4 1019.4 0.0
10/12:00am 13.4 11.6 10.8 84 1.4 W 11 13 6 7 1019.5 1019.5 0.0
 
Date/Time
EDT
Temp
°C
App
Temp
°C
Dew
Point
°C
Rel
Hum
%
Delta-T
°C
Wind Press
QNH
hPa
Press
MSL
hPa
Rain since
9am
mm
Dir  Spd
km/h
Gust
km/h
Spd
kts
Gust
kts
09/11:30pm 12.6 10.9 9.8 83 1.4 W 9 9 5 5 1019.2 1019.2 0.0
09/11:00pm 13.5 11.5 10.1 80 1.8 W 11 13 6 7 1018.9 1018.9 0.0
09/10:30pm 14.1 13.8 10.1 77 2.1 SW 2 9 1 5 1018.7 1018.7 0.0
09/10:00pm 14.8 13.6 10.4 75 2.3 S 7 9 4 5 1018.4 1018.4 0.0
09/09:30pm 15.6 14.3 9.9 69 3.0 S 7 9 4 5 1017.9 1017.9 0.0
09/09:00pm 16.7 15.1 10.3 66 3.4 S 9 15 5 8 1017.5 1017.5 0.0
09/08:30pm 17.7 15.2 9.8 60 4.2 SSE 13 19 7 10 1017.0 1017.0 0.0
09/08:00pm 18.3 15.8 9.6 57 4.6 SSE 13 20 7 11 1016.4 1016.4 0.0
09/07:30pm 19.1 16.0 9.0 52 5.3 SSE 15 24 8 13 1015.8 1015.8 0.0
09/07:00pm 19.8 15.9 9.4 51 5.5 SSE 20 28 11 15 1014.9 1014.9 0.0
09/06:30pm 20.0 16.0 8.4 47 6.0 SSE 19 28 10 15 1014.3 1014.3 0.0
09/06:00pm 20.3 16.1 8.3 46 6.2 SE 20 32 11 17 1013.5 1013.5 0.0
09/05:30pm 21.3 17.7 9.9 48 6.2 SE 19 28 10 15 1012.7 1012.7 0.0
09/05:00pm 20.9 17.7 10.1 50 5.8 SE 17 30 9 16 1012.3 1012.3 0.0
09/04:30pm 21.8 18.3 10.9 50 6.0 ESE 20 28 11 15 1011.7 1011.7 0.0
09/04:00pm 22.2 19.0 11.3 50 6.1 ESE 19 28 10 15 1011.3 1011.3 0.0
09/03:30pm 21.9 18.4 11.0 50 6.0 ESE 20 33 11 18 1010.7 1010.7 0.0
09/03:00pm 22.4 19.2 11.8 51 6.0 ESE 20 32 11 17 1010.1 1010.1 0.0
09/02:30pm 22.5 20.7 10.9 48 6.4 ESE 11 20 6 11 1010.2 1010.2 0.0
09/02:00pm 25.5 19.9 0.9 20 11.6 W 20 39 11 21 1010.2 1010.2 0.0
09/01:30pm 24.9 19.0 1.7 22 11.0 WSW 22 35 12 19 1009.8 1009.8 0.0
09/01:00pm 24.6 18.4 2.1 23 10.7 WSW 24 35 13 19 1009.6 1009.6 0.0
09/12:45pm 24.6 17.0 2.7 24 10.6 WSW 32 50 17 27 1009.5 1009.5 0.0
09/12:30pm 25.4 18.1 4.5 26 10.5 W 32 43 17 23 1009.3 1009.3 0.0
09/12:19pm 24.9 18.2 3.5 25 10.5 W 28 46 15 25 1009.2 1009.2 0.0
09/12:00pm 24.2 15.8 1.8 23 10.6 W 35 50 19 27 1009.5 1009.5 0.0
09/11:30am 24.2 16.5 3.5 26 10.1 W 33 56 18 30 1008.9 1008.9 0.0
09/11:12am 24.4 16.6 4.7 28 9.8 WSW 35 54 19 29 1008.9 1008.9 0.0
09/11:00am 24.1 16.3 5.0 29 9.6 W 35 52 19 28 1008.7 1008.7 0.0
09/10:45am 23.7 16.4 4.6 29 9.5 WSW 32 52 17 28 1008.6 1008.6 0.0
09/10:30am 24.2 17.2 6.9 33 9.0 W 33 50 18 27 1008.3 1008.3 0.0
09/10:00am 22.9 15.1 6.6 35 8.4 W 37 50 20 27 1007.8 1007.8 0.0
09/09:30am 22.4 13.8 6.6 36 8.1 W 41 56 22 30 1007.4 1007.4 0.0
09/09:00am 21.5 12.5 6.2 37 7.7 W 43 61 23 33 1007.1 1007.1 0.0
09/08:39am 20.6 11.9 6.2 39 7.2 WSW 41 59 22 32 1006.9 1006.9 0.0
09/08:30am 20.4 11.8 6.7 41 6.9 W 41 54 22 29 1006.8 1006.8 0.0
09/08:04am 20.0 12.7 7.4 44 6.4 W 35 54 19 29 1006.5 1006.5 0.0
09/08:00am 19.8 12.9 7.2 44 6.4 W 33 50 18 27 1006.5 1006.5 0.0
09/07:30am 18.9 12.1 7.0 46 6.0 W 32 41 17 22 1006.4 1006.4 0.0
09/07:08am 18.0 11.0 6.8 48 5.6 W 33 52 18 28 1005.9 1005.9 0.0
09/07:00am 17.7 10.4 7.2 50 5.3 W 35 48 19 26 1006.0 1006.0 0.0
09/06:30am 17.2 10.5 7.5 53 4.9 W 32 46 17 25 1006.1 1006.1 0.0
09/06:07am 17.1 11.2 7.5 53 4.8 W 28 48 15 26 1005.9 1005.9 0.0
09/06:00am 16.7 11.7 7.9 56 4.5 W 24 39 13 21 1005.9 1005.9 0.0
09/05:30am 16.8 12.5 8.0 56 4.5 W 20 30 11 16 1005.5 1005.5 0.0
09/05:10am 17.4 11.6 8.0 54 4.8 W 28 48 15 26 1005.1 1005.1 0.0
09/05:00am 17.3 12.6 7.9 54 4.8 W 22 39 12 21 1004.8 1004.8 0.0
09/04:30am 17.7 13.1 8.0 53 4.9 W 22 33 12 18 1004.1 1004.1 0.0
09/04:00am 18.1 14.4 7.8 51 5.3 W 17 24 9 13 1003.8 1003.8 0.0
09/03:31am 18.6 13.7 8.3 51 5.3 WSW 24 46 13 25 1003.2 1003.2 0.0
09/03:30am 18.5 13.6 8.5 52 5.2 WSW 24 46 13 25 1003.3 1003.3 0.0
09/03:29am 18.5 14.0 8.5 52 5.2 WSW 22 46 12 25 1003.4 1003.4 0.0
09/03:07am 18.8 14.2 8.2 50 5.5 WSW 22 44 12 24 1002.8 1002.8 0.0
09/03:00am 18.7 13.7 8.1 50 5.5 W 24 43 13 23 1002.7 1002.7 0.0
09/02:30am 19.1 13.0 8.1 49 5.7 WSW 30 44 16 24 1002.0 1002.0 0.0
09/02:00am 19.9 14.0 7.3 44 6.5 WSW 28 54 15 29 1001.5 1001.5 0.0
09/01:56am 20.2 14.6 7.2 43 6.6 WSW 26 54 14 29 1001.3 1001.3 0.0
09/01:30am 20.1 15.3 5.4 38 7.2 SW 20 35 11 19 1000.9 1000.9 0.0
09/01:00am 21.0 14.6 5.4 36 7.8 WSW 28 48 15 26 1000.7 1000.7 0.0
09/12:41am 21.3 15.1 6.0 37 7.7 WSW 28 48 15 26 1000.2 1000.2 0.0
09/12:30am 21.7 17.6 6.4 37 7.8 SSW 17 35 9 19 999.7 999.7 0.0
09/12:00am 22.4 16.6 8.1 40 7.6 W 28 48 15 26 998.9 998.9 0.0
 
Date/Time
EDT
Temp
°C
App
Temp
°C
Dew
Point
°C
Rel
Hum
%
Delta-T
°C
Wind Press
QNH
hPa
Press
MSL
hPa
Rain since
9am
mm
Dir  Spd
km/h
Gust
km/h
Spd
kts
Gust
kts
08/11:32pm 23.0 16.8 13.8 56 5.4 WSW 39 57 21 31 998.6 998.6 0.0
08/11:30pm 23.1 16.5 13.8 55 5.4 WSW 41 57 22 31 998.6 998.6 0.0
08/11:20pm 24.0 19.9 15.0 57 5.4 W 30 57 16 31 998.3 998.3 0.0
08/11:00pm 24.9 21.1 15.8 57 5.6 W 30 44 16 24 998.0 998.0 0.0
08/10:30pm 25.5 22.6 15.2 53 6.2 W 24 35 13 19 998.2 998.2 0.0
08/10:00pm 26.2 24.0 15.0 50 6.8 W 20 43 11 23 998.3 998.3 0.0
08/09:30pm 26.7 24.5 14.5 47 7.3 WNW 19 28 10 15 998.7 998.7 0.0
08/09:00pm 26.9 24.6 14.6 46 7.4 W 20 32 11 17 998.3 998.3 0.0
08/08:30pm 26.4 25.4 17.5 58 5.6 SSW 19 28 10 15 997.3 997.3 0.0
08/08:00pm 24.5 26.4 21.4 83 2.1 S 13 28 7 15 997.9 997.9 0.0
08/07:30pm 24.8 27.1 21.3 81 2.3 E 11 17 6 9 996.8 996.8 0.0
08/07:00pm 25.2 28.0 21.5 80 2.5 SE 9 13 5 7 996.7 996.7 0.0
08/06:30pm 25.2 26.8 21.5 80 2.5 E 15 26 8 14 997.0 997.0 0.0
08/06:00pm 25.5 26.0 21.2 77 2.9 ENE 20 28 11 15 996.9 996.9 0.0
08/05:30pm 25.8 26.2 20.6 73 3.4 ENE 19 24 10 13 997.2 997.2 0.0
08/05:00pm 26.6 26.7 21.1 72 3.7 ENE 22 30 12 16 997.2 997.2 0.0
08/04:30pm 26.1 25.9 21.3 75 3.2 ENE 24 32 13 17 997.7 997.7 0.0
08/04:00pm 26.0 25.8 21.2 75 3.2 ENE 24 30 13 16 998.2 998.2 0.0
08/03:30pm 24.7 24.8 20.4 77 2.8 ENE 20 28 11 15 999.1 999.1 0.0
08/03:00pm 26.0 24.8 20.1 70 3.9 ENE 26 33 14 18 999.9 999.9 0.0
08/02:30pm 25.2 24.3 19.8 72 3.5 NE 24 32 13 17 1000.7 1000.7 0.0
08/02:00pm 25.0 22.7 19.4 71 3.6 ENE 30 37 16 20 1001.0 1001.0 0.0
08/01:30pm 25.3 24.7 20.5 75 3.1 ENE 24 35 13 19 1001.9 1001.9 0.0
08/01:00pm 25.4 24.2 20.0 72 3.5 NE 26 35 14 19 1002.7 1002.7 0.0
08/12:30pm 25.4 23.8 20.0 72 3.5 NE 28 39 15 21 1003.1 1003.1 0.0
08/12:00pm 25.3 22.9 19.9 72 3.5 NE 32 39 17 21 1003.6 1003.6 0.0
08/11:30am 24.9 22.6 19.3 71 3.6 ENE 30 37 16 20 1004.4 1004.4 0.0
08/11:00am 24.9 22.1 19.1 70 3.7 NE 32 39 17 21 1005.1 1005.1 0.0
08/10:30am 25.3 24.1 19.2 69 3.9 ENE 24 32 13 17 1005.8 1005.8 0.0
08/10:00am 24.4 23.4 18.8 71 3.6 NE 22 28 12 15 1006.3 1006.3 0.0
08/09:30am 24.4 23.4 18.8 71 3.6 NE 22 28 12 15 1006.9 1006.9 0.0
08/09:00am 24.2 23.5 16.5 62 4.7 NNE 15 20 8 11 1007.5 1007.5 0.2
08/08:30am 23.3 23.1 16.6 66 4.1 N 13 20 7 11 1008.4 1008.4 0.2
08/08:00am 22.8 21.5 16.8 69 3.7 NNW 19 26 10 14 1008.7 1008.7 0.2
08/07:30am 22.3 21.5 17.0 72 3.2 NNW 17 20 9 11 1009.1 1009.1 0.2
08/07:00am 21.2 21.8 16.8 76 2.7 NNE 9 17 5 9 1009.3 1009.3 0.2
08/06:38am 20.6 21.6 16.8 79 2.3 N 7 11 4 6 1009.3 1009.3 0.2
08/06:30am 20.3 21.2 16.7 80 2.2 N 7 11 4 6 1009.3 1009.3 0.2
08/06:00am 20.3 21.4 16.5 79 2.3 NW 6 9 3 5 1009.5 1009.5 0.2
08/05:30am 20.6 19.7 16.8 79 2.3 NNW 17 22 9 12 1009.7 1009.7 0.2
08/05:00am 20.7 20.1 16.7 78 2.4 NNW 15 19 8 10 1009.8 1009.8 0.2
08/04:30am 20.8 20.2 16.6 77 2.5 N 15 19 8 10 1009.9 1009.9 0.2
08/04:00am 20.7 20.5 16.7 78 2.4 NNW 13 22 7 12 1010.2 1010.2 0.2
08/03:30am 20.8 21.0 16.8 78 2.4 NNW 11 15 6 8 1010.7 1010.7 0.2
08/03:00am 21.1 21.4 16.9 77 2.6 N 11 19 6 10 1011.0 1011.0 0.2
08/02:30am 21.1 21.4 17.1 78 2.4 N 11 22 6 12 1011.5 1011.5 0.2
08/02:00am 21.0 22.1 17.2 79 2.3 NNE 7 9 4 5 1011.9 1011.9 0.2
08/01:30am 21.1 21.9 17.3 79 2.3 N 9 13 5 7 1012.4 1012.4 0.2
08/01:00am 21.1 21.5 17.3 79 2.3 NNE 11 17 6 9 1012.7 1012.7 0.2
08/12:30am 21.2 20.9 17.4 79 2.3 NNE 15 19 8 10 1012.9 1012.9 0.2
08/12:00am 21.2 21.2 17.2 78 2.4 NNE 13 19 7 10 1013.3 1013.3 0.2
 
Date/Time
EDT
Temp
°C
App
Temp
°C
Dew
Point
°C
Rel
Hum
%
Delta-T
°C
Wind Press
QNH
hPa
Press
MSL
hPa
Rain since
9am
mm
Dir  Spd
km/h
Gust
km/h
Spd
kts
Gust
kts
07/11:45pm 21.2 20.9 17.4 79 2.3 NNE 15 22 8 12 1013.4 1013.4 0.2
07/11:30pm 21.2 20.4 17.2 78 2.4 NNE 17 20 9 11 1013.5 1013.5 0.2
07/11:00pm 21.2 20.1 17.2 78 2.4 NNE 19 26 10 14 1013.7 1013.7 0.2
07/10:30pm 21.1 21.1 17.1 78 2.4 NNE 13 24 7 13 1013.9 1013.9 0.2
07/10:00pm 21.2 20.4 17.0 77 2.6 N 17 24 9 13 1014.0 1014.0 0.2
07/09:33pm 21.3 19.9 16.9 76 2.7 NNE 20 28 11 15 1014.1 1014.1 0.2
07/09:30pm 21.3 19.9 16.9 76 2.7 NNE 20 28 11 15 1014.0 1014.0 0.2
07/09:14pm 21.2 19.9 16.8 76 2.7 NNE 19 32 10 17 1014.2 1014.2 0.2
07/09:00pm 21.3 20.0 16.7 75 2.8 NNE 19 26 10 14 1014.2 1014.2 0.2
07/08:30pm 21.3 20.7 16.7 75 2.8 NNE 15 24 8 13 1014.2 1014.2 0.2
07/08:00pm 21.4 20.4 16.6 74 2.9 NNE 17 24 9 13 1014.2 1014.2 0.2
07/07:30pm 21.4 20.4 16.6 74 2.9 NE 17 24 9 13 1014.0 1014.0 0.2
07/07:00pm 21.4 19.9 16.4 73 3.0 NE 19 24 10 13 1013.9 1013.9 0.2
07/06:30pm 21.5 20.5 16.5 73 3.0 NE 17 26 9 14 1013.8 1013.8 0.2
07/06:00pm 21.6 20.0 16.1 71 3.3 NE 19 26 10 14 1013.6 1013.6 0.2
07/05:30pm 21.8 20.1 16.3 71 3.3 ENE 20 30 11 16 1013.5 1013.5 0.2
07/05:00pm 21.7 19.8 15.8 69 3.5 ENE 20 26 11 14 1013.7 1013.7 0.2
07/04:30pm 22.0 20.4 16.1 69 3.6 NE 19 26 10 14 1013.9 1013.9 0.2
07/04:00pm 22.1 20.6 16.4 70 3.5 NE 19 26 10 14 1014.1 1014.1 0.2
07/03:30pm 22.1 20.4 15.7 67 3.8 NE 19 24 10 13 1014.1 1014.1 0.2
07/03:00pm 22.4 20.8 16.0 67 3.9 NE 19 24 10 13 1014.3 1014.3 0.2
07/02:30pm 22.5 21.1 15.6 65 4.1 ENE 17 20 9 11 1014.8 1014.8 0.2

Other Formats:

Comma delimited format used in spreadsheet applications
http://www.bom.gov.au/fwo/IDN60801/IDN60801.95748.axf

JavaScript Object Notation format (JSON) in row-major order
http://www.bom.gov.au/fwo/IDN60801/IDN60801.95748.json